Time;durP1;ratioP1;P1;durP2;ratioP2;P2;SDS_P1;SDS_P2;PMS_P1;PMS_P2;Temp;Humidity;BMP_temperature;BMP_pressure;BME280_temperature;BME280_humidity;BME280_pressure;Samples;Min_cycle;Max_cycle;Signal;HPM_P1;HPM_P2
2020/12/01 00:00:14;;;;;;;31.08;18.10;;;8.60;99.90;;;;;;5055322;28;20029;-65
2020/12/01 00:02:40;;;;;;;31.80;17.52;;;8.60;99.90;;;;;;5054426;28;20396;-65
2020/12/01 00:05:06;;;;;;;29.48;17.80;;;8.60;99.90;;;;;;5053681;28;20653;-65
2020/12/01 00:07:32;;;;;;;29.25;17.52;;;8.60;99.90;;;;;;5054189;28;20041;-65
2020/12/01 00:09:58;;;;;;;34.65;19.10;;;8.60;99.90;;;;;;5054970;28;20025;-68
2020/12/01 00:12:23;;;;;;;30.20;18.90;;;8.70;99.90;;;;;;5055782;28;20091;-66
2020/12/01 00:14:49;;;;;;;30.85;18.38;;;8.60;99.90;;;;;;5060302;28;20013;-69
2020/12/01 00:17:14;;;;;;;32.25;18.65;;;8.60;99.90;;;;;;5054726;28;20080;-64
2020/12/01 00:19:40;;;;;;;32.45;17.67;;;8.60;99.90;;;;;;5054477;28;20020;-66
2020/12/01 00:22:06;;;;;;;33.08;19.10;;;8.60;99.90;;;;;;5052049;28;20057;-66
2020/12/01 00:24:31;;;;;;;32.13;18.73;;;8.60;99.90;;;;;;5054248;28;20480;-69
2020/12/01 00:26:57;;;;;;;29.25;17.38;;;8.60;99.90;;;;;;5054159;28;20029;-66
2020/12/01 00:29:23;;;;;;;31.70;17.92;;;8.60;99.90;;;;;;5052830;28;20021;-69
2020/12/01 00:31:48;;;;;;;39.53;19.52;;;8.60;99.90;;;;;;5058886;28;20029;-67
2020/12/01 00:34:15;;;;;;;32.55;17.92;;;8.60;99.90;;;;;;5052933;28;20021;-66
2020/12/01 00:36:41;;;;;;;33.75;19.55;;;8.60;99.90;;;;;;5054001;28;20033;-65
2020/12/01 00:39:09;;;;;;;33.00;18.85;;;8.60;99.90;;;;;;5053842;28;20035;-68
2020/12/01 00:41:35;;;;;;;31.23;17.80;;;8.60;99.90;;;;;;5052510;28;20632;-66
2020/12/01 00:44:01;;;;;;;37.05;19.50;;;8.60;99.90;;;;;;5038216;28;20509;-66
2020/12/01 00:46:28;;;;;;;27.98;17.48;;;8.60;99.90;;;;;;5034198;28;20025;-69
2020/12/01 00:48:53;;;;;;;29.00;18.02;;;8.60;99.90;;;;;;5038998;28;20037;-65
2020/12/01 00:51:19;;;;;;;31.58;18.88;;;8.60;99.90;;;;;;5034399;28;20083;-66
2020/12/01 00:53:45;;;;;;;32.60;19.75;;;8.60;99.90;;;;;;5053399;28;20040;-68
2020/12/01 00:56:11;;;;;;;32.17;19.25;;;8.60;99.90;;;;;;5054485;28;20364;-68
2020/12/01 00:58:37;;;;;;;29.40;18.30;;;8.60;99.90;;;;;;5053142;28;20045;-64
2020/12/01 01:01:04;;;;;;;28.60;17.27;;;8.60;99.90;;;;;;5054017;28;20443;-64
2020/12/01 01:03:29;;;;;;;30.52;18.58;;;8.50;99.90;;;;;;5053201;28;20072;-65
2020/12/01 01:05:55;;;;;;;29.38;19.08;;;8.50;99.90;;;;;;5059966;28;20025;-66
2020/12/01 01:08:24;;;;;;;31.92;18.50;;;8.50;99.90;;;;;;5055002;28;20028;-68
2020/12/01 01:10:50;;;;;;;32.03;18.75;;;8.60;99.90;;;;;;5053837;28;20108;-68
2020/12/01 01:13:15;;;;;;;34.97;20.13;;;8.50;99.90;;;;;;5054159;28;20112;-66
2020/12/01 01:15:41;;;;;;;36.47;19.05;;;8.60;99.90;;;;;;5053731;28;20048;-66
2020/12/01 01:18:07;;;;;;;32.80;19.67;;;8.60;99.90;;;;;;5053899;28;20064;-65
2020/12/01 01:20:32;;;;;;;32.42;19.05;;;8.60;99.90;;;;;;5054399;28;20021;-66
2020/12/01 01:22:58;;;;;;;29.77;17.77;;;8.60;99.90;;;;;;5056398;28;20044;-66
2020/12/01 01:25:24;;;;;;;32.90;18.85;;;8.50;99.90;;;;;;5053747;28;20096;-65
2020/12/01 01:27:50;;;;;;;35.95;20.88;;;8.50;99.90;;;;;;5053086;28;20441;-66
2020/12/01 01:30:19;;;;;;;33.38;19.95;;;8.50;99.90;;;;;;5052534;28;20022;-67
2020/12/01 01:32:44;;;;;;;35.37;20.00;;;8.40;99.90;;;;;;5051542;28;20036;-68
2020/12/01 01:35:10;;;;;;;32.35;18.65;;;8.50;99.90;;;;;;5053171;28;20435;-63
2020/12/01 01:37:36;;;;;;;34.78;18.20;;;8.50;99.90;;;;;;5053021;28;20039;-63
2020/12/01 01:40:02;;;;;;;30.67;18.75;;;8.50;99.90;;;;;;5055201;28;20025;-68
2020/12/01 01:42:28;;;;;;;32.97;18.40;;;8.50;99.90;;;;;;5052837;28;20113;-64
2020/12/01 01:44:53;;;;;;;32.80;19.65;;;8.50;99.90;;;;;;5054369;28;20100;-68
2020/12/01 01:47:29;;;;;;;33.70;19.17;;;8.50;99.90;;;;;;5057889;28;20033;-65
2020/12/01 01:50:12;;;;;;;33.25;19.67;;;8.40;99.90;;;;;;5057849;28;20113;-65
2020/12/01 01:52:40;;;;;;;31.38;18.30;;;8.50;99.90;;;;;;5056338;28;20040;-67
2020/12/01 01:55:10;;;;;;;31.83;18.95;;;8.50;99.90;;;;;;5058927;28;20040;-69
2020/12/01 01:57:37;;;;;;;34.55;19.52;;;8.50;99.90;;;;;;5059395;28;20032;-66
2020/12/01 02:00:16;;;;;;;32.35;18.75;;;8.50;99.90;;;;;;5056544;28;20424;-67
2020/12/01 02:02:42;;;;;;;32.50;19.60;;;8.50;99.90;;;;;;5055663;28;20464;-65
2020/12/01 02:05:07;;;;;;;31.33;17.50;;;8.50;99.90;;;;;;5056381;28;20354;-65
2020/12/01 02:07:33;;;;;;;33.60;19.20;;;8.50;99.90;;;;;;5058332;28;20017;-68
2020/12/01 02:09:59;;;;;;;32.67;18.95;;;8.50;99.90;;;;;;5055665;28;20147;-68
2020/12/01 02:12:24;;;;;;;34.83;18.63;;;8.50;99.90;;;;;;5057882;28;20021;-63
2020/12/01 02:15:01;;;;;;;33.50;19.55;;;8.50;99.90;;;;;;5058438;28;20032;-64
2020/12/01 02:17:30;;;;;;;32.78;19.00;;;8.50;99.90;;;;;;5056207;28;20448;-64
2020/12/01 02:19:59;;;;;;;32.65;19.35;;;8.50;99.90;;;;;;5054459;28;20024;-67
2020/12/01 02:22:28;;;;;;;33.40;19.75;;;8.40;99.90;;;;;;5056721;28;20084;-64
2020/12/01 02:24:55;;;;;;;35.47;19.23;;;8.40;99.90;;;;;;5058725;28;20053;-67
2020/12/01 02:27:24;;;;;;;35.17;19.38;;;8.40;99.90;;;;;;5056120;28;20566;-68
2020/12/01 02:29:52;;;;;;;36.22;19.75;;;8.50;99.90;;;;;;5057946;28;20033;-67
2020/12/01 02:32:18;;;;;;;32.35;19.20;;;8.50;99.90;;;;;;5058694;28;20029;-67
2020/12/01 02:34:46;;;;;;;34.25;20.33;;;8.40;99.90;;;;;;5055626;28;20078;-67
2020/12/01 02:37:16;;;;;;;34.25;19.77;;;8.40;99.90;;;;;;5055566;28;20029;-67
2020/12/01 02:39:41;;;;;;;33.55;19.73;;;8.50;99.90;;;;;;5056709;28;20028;-64
2020/12/01 02:42:12;;;;;;;36.63;20.42;;;8.40;99.90;;;;;;5056250;28;20017;-66
2020/12/01 02:44:38;;;;;;;32.17;19.23;;;8.40;99.90;;;;;;5055744;28;20061;-68
2020/12/01 02:47:05;;;;;;;34.00;19.95;;;8.50;99.90;;;;;;5060343;28;20074;-64
2020/12/01 02:49:32;;;;;;;38.25;20.92;;;8.40;99.90;;;;;;5056994;28;20036;-64
2020/12/01 02:51:58;;;;;;;34.67;20.02;;;8.40;99.90;;;;;;5054809;28;20032;-68
2020/12/01 02:54:24;;;;;;;34.88;21.10;;;8.40;99.90;;;;;;5055922;28;20318;-63
2020/12/01 02:59:33;;;;;;;33.67;19.48;;;8.40;99.90;;;;;;5056922;28;20063;-65
2020/12/01 03:01:59;;;;;;;34.03;19.80;;;8.40;99.90;;;;;;5054825;28;20372;-63
2020/12/01 03:04:24;;;;;;;32.10;18.90;;;8.40;99.90;;;;;;5056029;28;20083;-64
2020/12/01 03:06:50;;;;;;;31.55;20.38;;;8.40;99.90;;;;;;5054702;28;20025;-66
2020/12/01 03:09:18;;;;;;;33.63;19.17;;;8.40;99.90;;;;;;5053645;28;20032;-67
2020/12/01 03:11:43;;;;;;;31.77;19.35;;;8.40;99.90;;;;;;5054392;28;20017;-65
2020/12/01 03:14:10;;;;;;;36.03;21.70;;;8.40;99.90;;;;;;5055570;28;20040;-66
2020/12/01 03:16:36;;;;;;;32.55;19.50;;;8.40;99.90;;;;;;5055990;28;20025;-64
2020/12/01 03:19:02;;;;;;;32.65;19.75;;;8.40;99.90;;;;;;5056220;28;20039;-66
2020/12/01 03:21:28;;;;;;;33.90;19.00;;;8.40;99.90;;;;;;5053554;28;20025;-66
2020/12/01 03:23:54;;;;;;;34.63;20.52;;;8.40;99.90;;;;;;5034816;28;20037;-67
2020/12/01 03:26:19;;;;;;;31.63;19.30;;;8.50;99.90;;;;;;5035176;28;20040;-65
2020/12/01 03:28:46;;;;;;;32.95;19.23;;;8.50;99.90;;;;;;5035165;28;20032;-64
2020/12/01 03:31:14;;;;;;;30.65;19.17;;;8.50;99.90;;;;;;5034412;28;20033;-68
2020/12/01 03:33:40;;;;;;;33.30;19.35;;;8.50;99.90;;;;;;5053625;28;20040;-66
2020/12/01 03:36:06;;;;;;;31.38;19.55;;;8.50;99.90;;;;;;5056643;28;20062;-64
2020/12/01 03:38:32;;;;;;;33.22;20.08;;;8.50;99.90;;;;;;5054719;28;20036;-64
2020/12/01 03:40:57;;;;;;;30.60;19.23;;;8.50;99.90;;;;;;5055238;28;20101;-68
2020/12/01 03:43:23;;;;;;;32.80;19.65;;;8.50;99.90;;;;;;5055337;28;20029;-68
2020/12/01 03:45:49;;;;;;;31.05;19.63;;;8.50;99.90;;;;;;5055331;28;20025;-68
2020/12/01 03:48:15;;;;;;;32.22;20.73;;;8.50;99.90;;;;;;5054657;28;20038;-68
2020/12/01 03:50:41;;;;;;;35.75;20.08;;;8.40;99.90;;;;;;5054436;28;20083;-66
2020/12/01 03:53:07;;;;;;;31.00;19.60;;;8.30;99.90;;;;;;5054709;28;20409;-67
2020/12/01 03:55:33;;;;;;;33.80;20.45;;;8.30;99.90;;;;;;5055293;28;20036;-65
2020/12/01 03:57:59;;;;;;;33.38;19.45;;;8.30;99.90;;;;;;5054624;28;20032;-66
2020/12/01 04:00:27;;;;;;;33.97;20.05;;;8.30;99.90;;;;;;5054014;28;20025;-69
2020/12/01 04:02:55;;;;;;;31.45;19.38;;;8.40;99.90;;;;;;5053701;28;20108;-65
2020/12/01 04:05:24;;;;;;;35.42;21.27;;;8.30;99.90;;;;;;5054811;28;20378;-65
2020/12/01 04:07:53;;;;;;;32.80;18.63;;;8.30;99.90;;;;;;5053841;28;20092;-67
2020/12/01 04:10:20;;;;;;;33.13;19.60;;;8.30;99.90;;;;;;5056866;28;20848;-65
2020/12/01 04:12:46;;;;;;;32.65;20.55;;;8.30;99.90;;;;;;5055851;28;20090;-68
2020/12/01 04:15:14;;;;;;;34.83;20.65;;;8.30;99.90;;;;;;5054034;28;20029;-66
2020/12/01 04:17:40;;;;;;;35.65;20.38;;;8.20;99.90;;;;;;5053316;28;20033;-65
2020/12/01 04:20:06;;;;;;;34.35;19.20;;;8.20;99.90;;;;;;5054216;28;20388;-68
2020/12/01 04:22:33;;;;;;;37.65;19.42;;;8.20;99.90;;;;;;5053489;28;20037;-68
2020/12/01 04:24:59;;;;;;;32.40;19.88;;;8.20;99.90;;;;;;5054680;28;20421;-66
2020/12/01 04:27:25;;;;;;;37.17;20.52;;;8.30;99.90;;;;;;5056261;28;20045;-64
2020/12/01 04:29:50;;;;;;;32.67;19.90;;;8.30;99.90;;;;;;5053870;28;20032;-69
2020/12/01 04:32:16;;;;;;;34.38;19.38;;;8.30;99.90;;;;;;5052704;28;20051;-69
2020/12/01 04:34:41;;;;;;;32.25;19.65;;;8.30;99.90;;;;;;5054407;28;20383;-69
2020/12/01 04:37:07;;;;;;;30.70;19.42;;;8.30;99.90;;;;;;5053695;28;20125;-68
2020/12/01 04:39:34;;;;;;;37.80;21.35;;;8.30;99.90;;;;;;5055132;28;20024;-65
2020/12/01 04:42:00;;;;;;;34.92;20.73;;;8.40;99.90;;;;;;5053617;28;20099;-69
2020/12/01 04:44:31;;;;;;;34.65;20.35;;;8.30;99.90;;;;;;5055987;28;20024;-68
2020/12/01 04:47:05;;;;;;;36.60;19.88;;;8.30;99.90;;;;;;5053341;28;20135;-68
2020/12/01 04:49:41;;;;;;;33.60;19.55;;;8.30;99.90;;;;;;5052921;28;20153;-66
2020/12/01 04:52:38;;;;;;;35.88;20.83;;;8.30;99.90;;;;;;5053049;28;20396;-67
2020/12/01 04:55:36;;;;;;;36.13;21.10;;;8.30;99.90;;;;;;5052829;28;20381;-67
2020/12/01 04:58:33;;;;;;;34.60;19.65;;;8.20;99.90;;;;;;5052462;28;20385;-65
2020/12/01 05:01:14;;;;;;;35.17;20.73;;;8.20;99.90;;;;;;5056224;28;20040;-65
2020/12/01 05:03:45;;;;;;;35.47;20.60;;;8.20;99.90;;;;;;5052781;28;20037;-65
2020/12/01 05:06:33;;;;;;;37.28;21.00;;;8.20;99.90;;;;;;5053357;28;20357;-68
2020/12/01 05:09:04;;;;;;;33.38;19.83;;;8.10;99.90;;;;;;5053883;28;20036;-67
2020/12/01 05:11:58;;;;;;;34.45;19.75;;;8.10;99.90;;;;;;5052479;28;20035;-66
2020/12/01 05:14:50;;;;;;;35.10;20.73;;;8.10;99.90;;;;;;5054198;28;20021;-66
2020/12/01 05:17:55;;;;;;;33.67;21.88;;;8.10;99.90;;;;;;5054691;28;20025;-66
2020/12/01 05:20:20;;;;;;;36.33;21.83;;;8.20;99.90;;;;;;5055265;28;20021;-65
2020/12/01 05:22:55;;;;;;;36.65;22.02;;;8.10;99.90;;;;;;5056354;28;20037;-68
2020/12/01 05:25:27;;;;;;;39.85;21.08;;;8.10;99.90;;;;;;5057867;28;20025;-68
2020/12/01 05:28:14;;;;;;;38.97;21.75;;;8.10;99.90;;;;;;5057555;28;20070;-69
2020/12/01 05:30:42;;;;;;;36.05;20.58;;;8.10;99.90;;;;;;5056693;28;20357;-66
2020/12/01 05:33:17;;;;;;;34.08;20.48;;;8.10;99.90;;;;;;5057039;28;20476;-67
2020/12/01 05:35:42;;;;;;;34.53;20.67;;;8.10;99.90;;;;;;5058638;28;20025;-64
2020/12/01 05:38:19;;;;;;;37.95;20.00;;;8.10;99.90;;;;;;5058118;28;20044;-64
2020/12/01 05:41:00;;;;;;;41.58;22.48;;;8.10;99.90;;;;;;5056876;28;20146;-69
2020/12/01 05:43:38;;;;;;;32.25;21.05;;;8.10;99.90;;;;;;5059961;28;20100;-65
2020/12/01 05:46:20;;;;;;;34.10;19.88;;;8.10;99.90;;;;;;5057094;28;20029;-69
2020/12/01 05:49:06;;;;;;;34.05;20.55;;;8.00;99.90;;;;;;5057244;28;20029;-64
2020/12/01 05:51:40;;;;;;;32.65;19.75;;;8.10;99.90;;;;;;5058746;28;20331;-67
2020/12/01 05:54:29;;;;;;;32.75;19.50;;;8.00;99.90;;;;;;5061081;28;20029;-67
2020/12/01 05:56:55;;;;;;;30.23;19.27;;;8.00;99.90;;;;;;5056043;28;20041;-66
2020/12/01 05:59:22;;;;;;;34.65;20.02;;;8.00;99.90;;;;;;5057560;28;20025;-68
2020/12/01 06:01:52;;;;;;;33.40;19.65;;;8.00;99.90;;;;;;5056708;28;20476;-68
2020/12/01 06:04:22;;;;;;;33.80;20.27;;;8.00;99.90;;;;;;5057359;28;20051;-64
2020/12/01 06:07:11;;;;;;;33.88;19.33;;;8.00;99.90;;;;;;5056151;28;20039;-66
2020/12/01 06:09:51;;;;;;;;;;;8.00;99.90;;;;;;5057665;28;20031;-65
2020/12/01 06:12:36;;;;;;;34.45;19.27;;;8.00;99.90;;;;;;5055858;28;19904;-67
2020/12/01 06:15:15;;;;;;;31.98;20.10;;;8.00;99.90;;;;;;5055530;28;20045;-65
2020/12/01 06:17:54;;;;;;;37.33;21.42;;;8.00;99.90;;;;;;5056943;28;20404;-68
2020/12/01 06:21:14;;;;;;;34.15;20.13;;;8.00;99.90;;;;;;5056399;28;20025;-67
2020/12/01 06:23:56;;;;;;;32.17;19.20;;;7.90;99.90;;;;;;5057074;28;20029;-64
2020/12/01 06:26:43;;;;;;;36.53;19.45;;;7.90;99.90;;;;;;5059198;28;20085;-67
2020/12/01 06:29:26;;;;;;;31.60;19.88;;;7.90;99.90;;;;;;5056356;28;20032;-65
2020/12/01 06:32:23;;;;;;;34.97;20.75;;;7.90;99.90;;;;;;5057539;28;20044;-67
2020/12/01 06:35:30;;;;;;;36.63;20.45;;;7.90;99.90;;;;;;5057193;28;20037;-66
2020/12/01 06:38:07;;;;;;;34.05;20.00;;;7.90;99.90;;;;;;5056964;28;20380;-68
2020/12/01 06:40:37;;;;;;;33.95;20.30;;;8.00;99.90;;;;;;5058437;28;20060;-69
2020/12/01 06:43:08;;;;;;;29.30;19.02;;;8.00;99.90;;;;;;5058384;28;20052;-64
2020/12/01 06:45:44;;;;;;;34.97;20.63;;;8.00;99.90;;;;;;5057128;28;20025;-64
2020/12/01 06:48:48;;;;;;;32.95;19.48;;;8.00;99.90;;;;;;5057498;28;20028;-67
2020/12/01 06:51:16;;;;;;;30.67;18.30;;;8.00;99.90;;;;;;5056521;28;20071;-69
2020/12/01 06:53:42;;;;;;;30.92;18.30;;;8.00;99.90;;;;;;5056511;28;20048;-66
2020/12/01 06:56:10;;;;;;;30.25;18.10;;;8.00;99.90;;;;;;5058012;28;20052;-64
2020/12/01 06:58:40;;;;;;;30.40;18.25;;;8.00;99.90;;;;;;5059283;28;20108;-67
2020/12/01 07:01:12;;;;;;;28.45;17.30;;;8.00;99.90;;;;;;5057106;28;20025;-68
2020/12/01 07:03:45;;;;;;;31.52;17.98;;;8.00;99.90;;;;;;5058753;28;20075;-66
2020/12/01 07:06:32;;;;;;;29.73;18.15;;;8.10;99.90;;;;;;5061530;28;20029;-64
2020/12/01 07:09:19;;;;;;;30.08;18.52;;;8.10;99.90;;;;;;5055912;28;20028;-65
2020/12/01 07:11:56;;;;;;;38.55;20.70;;;8.10;99.90;;;;;;5056677;28;20448;-67
2020/12/01 07:14:35;;;;;;;35.30;18.95;;;8.10;99.90;;;;;;5057132;28;20127;-63
2020/12/01 07:17:01;;;;;;;30.63;18.17;;;8.10;99.90;;;;;;5050131;28;20033;-66
2020/12/01 07:19:52;;;;;;;35.33;20.52;;;8.00;99.90;;;;;;5058357;28;20041;-64
2020/12/01 07:22:20;;;;;;;35.42;18.85;;;8.10;99.90;;;;;;5056799;28;20040;-64
2020/12/01 07:25:26;;;;;;;31.63;19.50;;;8.20;99.90;;;;;;5053525;28;20083;-65
2020/12/01 07:28:09;;;;;;;34.50;20.08;;;8.20;99.90;;;;;;5040381;28;20091;-67
2020/12/01 07:31:00;;;;;;;39.60;22.75;;;8.20;99.90;;;;;;5045393;28;20028;-67
2020/12/01 07:33:30;;;;;;;33.97;20.15;;;8.20;99.90;;;;;;5040392;28;20065;-67
2020/12/01 07:36:12;;;;;;;34.92;21.83;;;8.20;99.90;;;;;;5052702;28;20338;-65
2020/12/01 07:38:42;;;;;;;36.60;21.23;;;8.30;99.90;;;;;;5055732;28;20040;-66
2020/12/01 07:41:25;;;;;;;38.47;23.23;;;8.20;99.90;;;;;;5054774;28;20017;-68
2020/12/01 07:44:18;;;;;;;37.28;22.98;;;8.20;99.90;;;;;;5033628;28;20473;-66
2020/12/01 07:49:17;;;;;;;34.50;20.73;;;8.20;99.90;;;;;;5048835;28;20515;-64
2020/12/01 07:51:43;;;;;;;38.83;22.05;;;8.30;99.90;;;;;;5055405;28;20086;-67
2020/12/01 07:54:09;;;;;;;37.40;22.23;;;8.30;99.90;;;;;;5048088;28;20381;-68
2020/12/01 07:56:39;;;;;;;39.35;22.90;;;8.40;99.90;;;;;;5047532;28;20040;-65
2020/12/01 07:59:06;;;;;;;;;;;8.40;99.90;;;;;;5040685;28;20139;-69
2020/12/01 08:01:32;;;;;;;30.92;18.17;;;8.40;99.90;;;;;;5035370;28;19912;-68
2020/12/01 08:04:16;;;;;;;29.85;17.95;;;8.30;99.90;;;;;;5037881;28;20025;-65
2020/12/01 08:06:43;;;;;;;39.45;19.75;;;8.40;99.90;;;;;;5044812;28;20044;-71
2020/12/01 08:09:22;;;;;;;33.38;20.02;;;8.40;99.90;;;;;;5039745;28;20104;-68
2020/12/01 08:11:49;;;;;;;34.13;18.77;;;8.30;99.90;;;;;;5039220;28;20021;-65
2020/12/01 08:14:15;;;;;;;31.00;18.05;;;8.20;99.90;;;;;;5048116;28;20092;-67
2020/12/01 08:16:43;;;;;;;28.90;17.85;;;8.20;99.90;;;;;;5044367;28;20047;-65
2020/12/01 08:19:11;;;;;;;28.33;16.90;;;8.20;99.90;;;;;;5047296;28;20341;-67
2020/12/01 08:21:43;;;;;;;28.33;17.20;;;8.20;99.90;;;;;;5042442;28;20366;-69
2020/12/01 08:24:21;;;;;;;26.85;17.38;;;8.20;99.90;;;;;;5044458;28;20068;-68
2020/12/01 08:26:58;;;;;;;30.42;18.17;;;8.20;99.90;;;;;;5039649;28;20048;-68
2020/12/01 08:29:31;;;;;;;33.92;19.38;;;8.20;99.90;;;;;;5036036;28;20017;-69
2020/12/01 08:32:16;;;;;;;32.65;18.92;;;8.20;99.90;;;;;;5037418;28;20033;-69
2020/12/01 08:34:46;;;;;;;37.97;20.33;;;8.20;99.90;;;;;;5039458;28;20035;-66
2020/12/01 08:37:14;;;;;;;;;;;8.20;99.90;;;;;;5043393;28;20063;-69
2020/12/01 08:39:51;;;;;;;38.17;20.23;;;8.20;99.90;;;;;;5043744;28;19909;-66
2020/12/01 08:42:41;;;;;;;36.70;21.25;;;8.20;99.90;;;;;;5053456;28;20499;-66
2020/12/01 08:45:13;;;;;;;37.47;21.10;;;8.20;99.90;;;;;;5054560;28;20031;-70
2020/12/01 08:47:40;;;;;;;44.53;22.10;;;8.10;99.90;;;;;;5052687;28;20081;-68
2020/12/01 08:50:22;;;;;;;40.10;21.67;;;8.10;99.90;;;;;;5049463;28;20480;-69
2020/12/01 08:52:48;;;;;;;38.25;19.98;;;8.20;99.90;;;;;;5056666;28;20496;-68
2020/12/01 08:55:29;;;;;;;42.33;20.85;;;8.10;99.90;;;;;;5057321;28;20441;-67
2020/12/01 08:58:09;;;;;;;36.53;21.08;;;8.20;99.90;;;;;;5055617;28;20025;-68
2020/12/01 09:00:35;;;;;;;41.25;21.67;;;8.20;99.90;;;;;;5055843;28;20029;-68
2020/12/01 09:03:09;;;;;;;39.95;21.23;;;8.20;99.90;;;;;;5055751;28;20113;-66
2020/12/01 09:05:46;;;;;;;35.08;19.77;;;8.20;99.90;;;;;;5062858;28;20029;-69
2020/12/01 09:11:04;;;;;;;37.20;19.98;;;8.30;99.90;;;;;;5058565;28;20056;-66
2020/12/01 09:13:32;;;;;;;32.03;18.52;;;8.30;99.90;;;;;;5060848;28;20426;-67
2020/12/01 09:16:32;;;;;;;33.50;19.60;;;8.30;99.90;;;;;;5058741;28;20056;-69
2020/12/01 09:22:14;;;;;;;31.17;17.80;;;8.40;99.90;;;;;;5062482;28;20033;-69
2020/12/01 09:24:40;;;;;;;25.95;16.30;;;8.40;99.90;;;;;;5061402;28;20023;-68
2020/12/01 09:27:13;;;;;;;29.90;16.42;;;8.40;99.90;;;;;;5058402;28;20112;-67
2020/12/01 09:29:51;;;;;;;27.13;16.42;;;8.40;99.90;;;;;;5059338;28;20021;-66
2020/12/01 09:32:19;;;;;;;26.33;15.57;;;8.40;99.90;;;;;;5057915;28;20040;-70
2020/12/01 09:34:45;;;;;;;26.88;16.73;;;8.40;99.90;;;;;;5057622;28;20025;-65
2020/12/01 09:37:11;;;;;;;26.27;16.15;;;8.40;99.90;;;;;;5058826;28;20095;-68
2020/12/01 09:39:36;;;;;;;26.45;17.02;;;8.40;99.90;;;;;;5065510;28;20043;-64
2020/12/01 09:42:12;;;;;;;27.23;16.17;;;8.30;99.90;;;;;;5059414;28;20025;-65
2020/12/01 09:47:08;;;;;;;30.83;18.15;;;8.20;99.90;;;;;;5059462;28;20025;-67
2020/12/01 09:49:33;;;;;;;27.95;16.73;;;8.20;99.90;;;;;;5057897;28;20032;-70
2020/12/01 09:52:06;;;;;;;31.25;16.75;;;8.20;99.90;;;;;;5058032;28;20025;-68
2020/12/01 09:54:45;;;;;;;29.70;17.08;;;8.20;99.90;;;;;;5058783;28;20053;-67
2020/12/01 09:59:45;;;;;;;29.23;16.70;;;8.20;99.90;;;;;;5062376;28;20072;-70
2020/12/01 10:05:27;;;;;;;27.98;17.63;;;8.20;99.90;;;;;;5057142;28;20051;-66
2020/12/01 10:13:08;;;;;;;30.92;17.48;;;8.20;99.90;;;;;;5058807;28;20037;-68
2020/12/01 10:32:05;;;;;;;30.25;18.25;;;8.20;99.90;;;;;;5060494;28;20033;-65
2020/12/01 10:36:56;;;;;;;30.40;19.38;;;8.20;99.90;;;;;;5057135;28;20066;-70
2020/12/01 10:39:22;;;;;;;34.75;19.45;;;8.20;99.90;;;;;;5058285;28;20067;-70
2020/12/01 10:41:50;;;;;;;32.88;19.48;;;8.30;99.90;;;;;;5057080;28;20099;-65
2020/12/01 10:44:16;;;;;;;34.60;20.25;;;8.30;99.90;;;;;;5057529;28;20036;-69
2020/12/01 10:46:45;;;;;;;33.05;19.80;;;8.30;99.90;;;;;;5058655;28;20212;-66
2020/12/01 10:49:11;;;;;;;32.20;20.80;;;8.40;99.90;;;;;;5060362;28;20025;-65
2020/12/01 10:51:37;;;;;;;37.85;20.98;;;8.40;99.90;;;;;;5057305;28;20081;-67
2020/12/01 10:54:03;;;;;;;33.45;20.92;;;8.30;99.90;;;;;;5059855;28;20060;-70
2020/12/01 10:56:28;;;;;;;32.58;20.67;;;8.30;99.90;;;;;;5056757;28;20040;-66
2020/12/01 10:58:54;;;;;;;36.35;21.15;;;8.30;99.90;;;;;;5057471;28;20021;-65
2020/12/01 11:01:19;;;;;;;35.22;21.25;;;8.30;99.90;;;;;;5057523;28;20025;-67
2020/12/01 11:03:45;;;;;;;36.15;21.40;;;8.20;99.90;;;;;;5058406;28;20036;-70
2020/12/01 11:06:11;;;;;;;35.10;20.33;;;8.20;99.90;;;;;;5058961;28;20468;-69
2020/12/01 11:08:36;;;;;;;36.83;22.58;;;8.20;99.90;;;;;;5056453;28;20040;-70
2020/12/01 11:11:02;;;;;;;35.92;20.92;;;8.20;99.90;;;;;;5058027;28;20100;-65
2020/12/01 11:13:28;;;;;;;34.33;20.70;;;8.20;99.90;;;;;;5057590;28;20052;-66
2020/12/01 11:15:53;;;;;;;29.88;18.35;;;8.20;99.90;;;;;;5058587;28;20101;-67
2020/12/01 11:18:19;;;;;;;30.48;18.63;;;8.20;99.90;;;;;;5056584;28;20090;-68
2020/12/01 11:20:44;;;;;;;31.25;17.67;;;8.20;99.90;;;;;;5057450;28;20358;-65
2020/12/01 11:23:10;;;;;;;30.08;17.30;;;8.10;99.90;;;;;;5060143;28;20461;-68
2020/12/01 11:25:35;;;;;;;31.17;17.85;;;8.20;99.90;;;;;;5057970;28;20021;-68
2020/12/01 11:28:01;;;;;;;31.02;18.08;;;8.20;99.90;;;;;;5057503;28;20027;-67
2020/12/01 11:30:27;;;;;;;29.00;17.48;;;8.20;99.90;;;;;;5054579;28;20029;-69
2020/12/01 11:32:52;;;;;;;31.45;18.00;;;8.20;99.90;;;;;;5056879;28;20029;-67
2020/12/01 11:35:22;;;;;;;29.45;18.20;;;8.20;99.90;;;;;;5056178;28;20557;-67
2020/12/01 11:37:48;;;;;;;33.13;18.88;;;8.20;99.90;;;;;;5053003;28;20436;-66
2020/12/01 11:40:14;;;;;;;31.83;18.52;;;8.30;99.90;;;;;;5050158;28;20028;-69
2020/12/01 11:42:41;;;;;;;30.30;17.63;;;8.20;99.90;;;;;;5046082;28;20021;-65
2020/12/01 11:45:08;;;;;;;31.00;18.58;;;8.10;99.90;;;;;;5042927;28;20037;-68
2020/12/01 11:47:33;;;;;;;28.75;18.05;;;8.10;99.90;;;;;;5036984;28;20029;-68
2020/12/01 11:49:59;;;;;;;32.28;18.55;;;8.10;99.90;;;;;;5036895;28;20041;-71
2020/12/01 11:52:24;;;;;;;27.35;16.75;;;8.10;99.90;;;;;;5036586;28;20092;-68
2020/12/01 11:54:50;;;;;;;31.55;18.00;;;8.10;99.90;;;;;;5034553;28;20026;-67
2020/12/01 11:57:16;;;;;;;28.95;17.75;;;8.00;99.90;;;;;;5035936;28;20033;-70
2020/12/01 11:59:41;;;;;;;31.63;16.98;;;8.00;99.90;;;;;;5044721;28;20378;-67
2020/12/01 12:02:07;;;;;;;27.55;16.77;;;8.00;99.90;;;;;;5041524;28;20064;-70
2020/12/01 12:04:32;;;;;;;28.95;16.83;;;8.00;99.90;;;;;;5035492;28;20021;-70
2020/12/01 12:06:59;;;;;;;29.23;17.05;;;8.00;99.90;;;;;;5036094;28;20034;-67
2020/12/01 12:09:25;;;;;;;28.98;17.23;;;7.90;99.90;;;;;;5037392;28;20029;-66
2020/12/01 12:11:51;;;;;;;29.48;16.70;;;8.00;99.90;;;;;;5037828;28;20033;-69
2020/12/01 12:14:17;;;;;;;29.63;16.77;;;8.00;99.90;;;;;;5052806;28;20108;-68
2020/12/01 12:16:42;;;;;;;32.22;17.58;;;8.00;99.90;;;;;;5048211;28;20038;-69
2020/12/01 12:19:08;;;;;;;25.83;16.63;;;8.10;99.90;;;;;;5044756;28;20035;-65
2020/12/01 12:21:34;;;;;;;29.45;16.20;;;8.10;99.90;;;;;;5047427;28;20538;-66
2020/12/01 12:23:59;;;;;;;27.38;16.13;;;8.10;99.90;;;;;;5046651;28;20024;-66
2020/12/01 12:26:25;;;;;;;30.52;17.35;;;8.20;99.90;;;;;;5045459;28;20101;-66
2020/12/01 12:28:50;;;;;;;26.98;16.05;;;8.20;99.90;;;;;;5046142;28;20033;-65
2020/12/01 12:31:19;;;;;;;27.90;16.63;;;8.20;99.90;;;;;;5059245;28;20021;-70
2020/12/01 12:33:44;;;;;;;27.63;16.33;;;8.20;99.90;;;;;;5058807;28;20027;-70
2020/12/01 12:36:10;;;;;;;27.75;17.02;;;8.10;99.90;;;;;;5055386;28;20029;-70
2020/12/01 12:38:36;;;;;;;30.73;16.98;;;8.00;99.90;;;;;;5054526;28;20033;-66
2020/12/01 12:41:03;;;;;;;25.17;15.70;;;7.90;99.90;;;;;;5058744;28;20050;-66
2020/12/01 12:43:30;;;;;;;27.27;16.23;;;7.90;99.90;;;;;;5056216;28;20135;-70
2020/12/01 12:45:56;;;;;;;28.73;16.77;;;7.80;99.90;;;;;;5054044;28;20033;-67
2020/12/01 12:48:24;;;;;;;27.88;16.92;;;7.90;99.90;;;;;;5046654;28;20033;-68
2020/12/01 12:50:50;;;;;;;26.38;17.00;;;7.90;99.90;;;;;;5042057;28;20495;-69
2020/12/01 12:53:16;;;;;;;28.27;16.85;;;7.90;99.90;;;;;;5035000;28;20100;-66
2020/12/01 12:55:41;;;;;;;26.23;15.57;;;8.00;99.90;;;;;;5035468;28;20029;-66
2020/12/01 12:58:07;;;;;;;26.10;15.35;;;8.00;99.90;;;;;;5037205;28;20102;-67
2020/12/01 13:00:33;;;;;;;27.92;16.33;;;8.00;99.90;;;;;;5035020;28;20037;-69
2020/12/01 13:02:59;;;;;;;27.77;15.40;;;8.00;99.90;;;;;;5034345;28;20022;-65
2020/12/01 13:05:24;;;;;;;27.80;16.33;;;8.00;99.90;;;;;;5037718;28;20438;-65
2020/12/01 13:07:50;;;;;;;27.77;16.00;;;7.90;99.90;;;;;;5036849;28;20080;-65
2020/12/01 13:10:17;;;;;;;24.83;16.30;;;8.00;99.90;;;;;;5034166;28;20087;-68
2020/12/01 13:12:43;;;;;;;30.42;16.15;;;8.00;99.90;;;;;;5034070;28;20026;-64
2020/12/01 13:15:10;;;;;;;29.85;17.55;;;8.00;99.90;;;;;;5036068;28;20036;-64
2020/12/01 13:17:36;;;;;;;31.55;17.23;;;8.00;99.90;;;;;;5034492;28;20117;-68
2020/12/01 13:20:04;;;;;;;27.48;16.58;;;8.00;99.90;;;;;;5034718;28;20029;-65
2020/12/01 13:22:29;;;;;;;31.17;18.50;;;8.10;99.90;;;;;;5038294;28;20032;-66
2020/12/01 13:24:55;;;;;;;30.42;16.77;;;8.10;99.90;;;;;;5035038;28;20125;-69
2020/12/01 13:27:21;;;;;;;31.83;17.67;;;8.10;99.90;;;;;;5040715;28;20459;-66
2020/12/01 13:29:46;;;;;;;31.45;17.60;;;8.10;99.90;;;;;;5054676;28;20060;-64
2020/12/01 13:32:12;;;;;;;28.08;16.90;;;8.10;99.90;;;;;;5053234;28;20025;-67
2020/12/01 13:34:37;;;;;;;27.38;17.25;;;8.00;99.90;;;;;;5055613;28;20529;-68
2020/12/01 13:37:03;;;;;;;28.83;16.23;;;8.10;99.90;;;;;;5054495;28;20095;-66